createdAt,value
2019-03-17T00:00:37.224Z,72.89
2019-03-17T00:03:04.727Z,72.92
2019-03-17T00:05:32.355Z,73.05
2019-03-17T00:07:59.882Z,72.72
2019-03-17T00:10:27.090Z,72.56
2019-03-17T00:12:55.909Z,72.51
2019-03-17T00:15:23.988Z,72.48
2019-03-17T00:17:51.535Z,72.52
2019-03-17T00:20:19.939Z,72.66
2019-03-17T00:22:48.073Z,72.21
2019-03-17T00:25:16.453Z,72.26
2019-03-17T00:27:44.016Z,72.11
2019-03-17T00:30:12.091Z,72.01
2019-03-17T00:32:40.964Z,71.95
2019-03-17T00:35:08.859Z,72.17
2019-03-17T00:37:36.597Z,71.96
2019-03-17T00:40:04.822Z,71.85
2019-03-17T00:42:32.940Z,71.68
2019-03-17T00:45:00.834Z,72.14
2019-03-17T00:47:28.324Z,71.58
2019-03-17T00:49:56.146Z,71.92
2019-03-17T00:52:23.566Z,71.82
2019-03-17T00:54:51.571Z,71.40
2019-03-17T00:57:18.765Z,71.53
2019-03-17T00:59:46.365Z,72.13
2019-03-17T01:02:14.103Z,71.67
2019-03-17T01:04:42.198Z,71.31
2019-03-17T01:07:09.852Z,72.48
2019-03-17T01:09:37.716Z,71.27
2019-03-17T01:12:05.720Z,71.30
2019-03-17T01:14:34.108Z,72.17
2019-03-17T01:17:02.218Z,71.64
2019-03-17T01:19:30.114Z,71.34
2019-03-17T01:21:57.405Z,71.33
2019-03-17T01:24:25.397Z,71.13
2019-03-17T01:26:53.271Z,71.11
2019-03-17T01:29:21.421Z,71.19
2019-03-17T01:31:49.107Z,71.27
2019-03-17T01:34:16.756Z,70.98
2019-03-17T01:36:44.655Z,70.86
2019-03-17T01:39:12.688Z,70.97
2019-03-17T01:41:40.527Z,71.39
2019-03-17T01:44:07.735Z,71.21
2019-03-17T01:46:35.629Z,71.04
2019-03-17T01:49:02.977Z,71.12
2019-03-17T01:51:30.858Z,70.99
2019-03-17T01:53:58.538Z,70.95
2019-03-17T01:56:25.844Z,70.78
2019-03-17T01:58:53.258Z,71.07
2019-03-17T02:01:20.815Z,70.81
2019-03-17T02:03:48.585Z,70.63
2019-03-17T02:06:16.324Z,70.27
2019-03-17T02:08:44.327Z,70.56
2019-03-17T02:11:12.201Z,70.21
2019-03-17T02:13:39.481Z,70.09
2019-03-17T02:16:07.333Z,70.22
2019-03-17T02:18:35.174Z,70.26
2019-03-17T02:21:02.642Z,70.96
2019-03-17T02:23:30.424Z,70.05
2019-03-17T02:25:58.142Z,70.13
2019-03-17T02:28:25.713Z,69.93
2019-03-17T02:30:53.366Z,70.16
2019-03-17T02:33:21.038Z,70.65
2019-03-17T02:35:48.637Z,70.68
2019-03-17T02:38:16.211Z,70.21
2019-03-17T02:40:44.112Z,69.71
2019-03-17T02:43:12.363Z,70.13
2019-03-17T02:45:40.268Z,69.80
2019-03-17T02:48:07.842Z,69.66
2019-03-17T02:50:36.227Z,70.02
2019-03-17T02:53:04.690Z,70.97
2019-03-17T02:55:32.769Z,71.69
2019-03-17T02:58:00.572Z,70.34
2019-03-17T03:00:28.098Z,69.92
2019-03-17T03:02:55.999Z,71.02
2019-03-17T03:05:23.450Z,70.49
2019-03-17T03:07:50.859Z,69.56
2019-03-17T03:10:18.962Z,69.35
2019-03-17T03:12:46.650Z,69.93
2019-03-17T03:15:14.602Z,69.51
2019-03-17T03:17:42.407Z,69.81
2019-03-17T03:20:09.778Z,69.27
2019-03-17T03:22:37.587Z,71.29
2019-03-17T03:25:05.541Z,69.67
2019-03-17T03:27:33.189Z,69.20
2019-03-17T03:30:00.968Z,70.27
2019-03-17T03:32:28.655Z,70.10
2019-03-17T03:34:56.549Z,69.41
2019-03-17T03:37:23.974Z,69.60
2019-03-17T03:39:51.363Z,69.60
2019-03-17T03:42:19.192Z,69.46
2019-03-17T03:44:46.372Z,70.18
2019-03-17T03:47:13.749Z,69.76
2019-03-17T03:49:41.088Z,70.79
2019-03-17T03:52:08.530Z,69.05
2019-03-17T03:54:35.844Z,69.19
2019-03-17T03:57:03.323Z,70.64
2019-03-17T03:59:30.914Z,70.27
2019-03-17T04:01:58.335Z,69.24
2019-03-17T04:04:26.165Z,69.43
2019-03-17T04:06:53.958Z,69.66
2019-03-17T04:09:21.916Z,69.59
2019-03-17T04:11:49.589Z,70.03
2019-03-17T04:14:16.877Z,69.36
2019-03-17T04:16:44.309Z,69.29
2019-03-17T04:19:11.834Z,69.29
2019-03-17T04:21:40.106Z,69.38
2019-03-17T04:24:07.590Z,69.31
2019-03-17T04:26:35.771Z,69.55
2019-03-17T04:29:03.138Z,69.18
2019-03-17T04:31:30.405Z,68.91
2019-03-17T04:33:59.326Z,69.51
2019-03-17T04:36:39.591Z,69.48
2019-03-17T04:38:56.153Z,68.92
2019-03-17T04:41:24.128Z,69.35
2019-03-17T04:43:51.745Z,69.79
2019-03-17T04:46:19.312Z,68.92
2019-03-17T04:48:46.981Z,69.42
2019-03-17T04:51:14.582Z,69.51
2019-03-17T04:53:42.173Z,69.53
2019-03-17T04:56:09.686Z,69.53
2019-03-17T04:58:37.290Z,69.34
2019-03-17T05:01:04.913Z,70.26
2019-03-17T05:03:33.023Z,69.68
2019-03-17T05:06:00.706Z,69.24
2019-03-17T05:08:28.472Z,69.76
2019-03-17T05:10:56.498Z,69.17
2019-03-17T05:13:24.384Z,69.78
2019-03-17T05:15:52.297Z,69.27
2019-03-17T05:18:20.168Z,69.40
2019-03-17T05:20:48.146Z,69.24
2019-03-17T05:23:15.707Z,69.30
2019-03-17T05:25:43.511Z,69.10
2019-03-17T05:28:10.947Z,69.05
2019-03-17T05:30:39.125Z,68.25
2019-03-17T05:33:06.521Z,68.22
2019-03-17T05:35:34.020Z,68.60
2019-03-17T05:38:01.556Z,67.97
2019-03-17T05:40:29.508Z,67.82
2019-03-17T05:42:57.212Z,67.79
2019-03-17T05:45:25.089Z,67.98
2019-03-17T05:47:53.784Z,67.46
2019-03-17T05:50:21.391Z,67.90
2019-03-17T05:52:49.769Z,67.55
2019-03-17T05:55:17.208Z,66.80
2019-03-17T05:57:45.284Z,69.50
2019-03-17T06:00:14.204Z,66.85
2019-03-17T06:02:42.284Z,66.48
2019-03-17T06:05:10.187Z,66.65
2019-03-17T06:07:38.312Z,66.62
2019-03-17T06:10:06.126Z,66.65
2019-03-17T06:12:33.532Z,67.07
2019-03-17T06:15:01.626Z,67.76
2019-03-17T06:17:28.984Z,66.03
2019-03-17T06:19:56.935Z,66.48
2019-03-17T06:22:24.854Z,65.68
2019-03-17T06:24:52.163Z,65.45
2019-03-17T06:27:20.039Z,67.03
2019-03-17T06:29:47.662Z,66.77
2019-03-17T06:32:15.530Z,66.62
2019-03-17T06:34:42.956Z,64.91
2019-03-17T06:37:10.483Z,66.25
2019-03-17T06:39:37.889Z,64.50
2019-03-17T06:42:06.101Z,66.00
2019-03-17T06:44:33.514Z,64.50
2019-03-17T06:47:01.271Z,63.85
2019-03-17T06:49:28.993Z,65.12
2019-03-17T06:51:57.383Z,64.01
2019-03-17T06:54:25.291Z,64.25
2019-03-17T06:56:52.573Z,63.16
2019-03-17T06:59:19.843Z,66.47
2019-03-17T07:01:48.303Z,63.53
2019-03-17T07:04:15.594Z,63.70
2019-03-17T07:06:42.998Z,62.83
2019-03-17T07:09:10.704Z,63.35
2019-03-17T07:11:38.515Z,62.89
2019-03-17T07:14:06.159Z,62.92
2019-03-17T07:16:33.780Z,63.86
2019-03-17T07:19:01.918Z,62.48
2019-03-17T07:21:29.042Z,62.36
2019-03-17T07:23:56.786Z,63.83
2019-03-17T07:26:24.255Z,61.28
2019-03-17T07:28:51.786Z,61.77
2019-03-17T07:31:18.966Z,60.95
2019-03-17T07:33:46.404Z,60.97
2019-03-17T07:36:14.220Z,62.03
2019-03-17T07:38:41.968Z,59.62
2019-03-17T07:41:09.706Z,60.35
2019-03-17T07:43:37.141Z,59.77
2019-03-17T07:46:04.875Z,60.59
2019-03-17T07:48:32.602Z,60.52
2019-03-17T07:51:00.307Z,59.86
2019-03-17T07:53:27.952Z,59.77
2019-03-17T07:55:56.087Z,60.38
2019-03-17T07:58:23.472Z,60.39
2019-03-17T08:00:51.060Z,61.42
2019-03-17T08:03:18.720Z,60.89
2019-03-17T08:05:46.944Z,60.69
2019-03-17T08:08:14.362Z,60.74
2019-03-17T08:10:42.097Z,60.93
2019-03-17T08:13:10.540Z,60.78
2019-03-17T08:15:39.205Z,61.59
2019-03-17T08:18:06.512Z,62.21
2019-03-17T08:20:33.953Z,61.09
2019-03-17T08:23:02.312Z,61.03
2019-03-17T08:25:29.582Z,61.57
2019-03-17T08:27:57.184Z,61.08
2019-03-17T08:30:24.590Z,61.87
2019-03-17T08:32:52.141Z,62.23
2019-03-17T08:35:19.904Z,60.09
2019-03-17T08:37:48.009Z,61.96
2019-03-17T08:40:15.572Z,59.49
2019-03-17T08:42:43.292Z,61.01
2019-03-17T08:45:11.229Z,58.37
2019-03-17T08:47:39.065Z,57.49
2019-03-17T08:50:07.064Z,56.96
2019-03-17T08:52:35.098Z,56.50
2019-03-17T08:55:03.260Z,57.79
2019-03-17T08:57:30.721Z,59.30
2019-03-17T08:59:58.014Z,58.34
2019-03-17T09:02:25.652Z,57.56
2019-03-17T09:04:52.849Z,58.29
2019-03-17T09:07:20.537Z,59.58
2019-03-17T09:09:47.851Z,59.51
2019-03-17T09:12:15.243Z,58.50
2019-03-17T09:14:42.926Z,57.93
2019-03-17T09:17:14.678Z,59.59
2019-03-17T09:19:41.136Z,59.39
2019-03-17T09:22:09.204Z,58.03
2019-03-17T09:24:36.474Z,58.94
2019-03-17T09:27:04.742Z,58.75
2019-03-17T09:29:32.301Z,57.36
2019-03-17T09:32:00.443Z,57.33
2019-03-17T09:34:28.358Z,60.30
2019-03-17T09:36:56.106Z,56.49
2019-03-17T09:39:23.829Z,56.26
2019-03-17T09:41:51.794Z,58.59
2019-03-17T09:44:19.718Z,56.30
2019-03-17T09:46:47.447Z,59.54
2019-03-17T09:49:14.887Z,61.48
2019-03-17T09:51:42.468Z,62.11
2019-03-17T09:54:10.560Z,64.30
2019-03-17T09:56:38.036Z,65.22
2019-03-17T09:59:05.854Z,65.37
2019-03-17T10:01:33.892Z,63.42
2019-03-17T10:04:02.329Z,67.79
2019-03-17T10:06:29.582Z,66.09
2019-03-17T10:09:00.234Z,68.95
2019-03-17T10:11:27.471Z,68.89
2019-03-17T10:13:55.340Z,67.46
2019-03-17T10:16:23.041Z,68.02
2019-03-17T10:18:50.787Z,68.33
2019-03-17T10:21:18.786Z,66.81
2019-03-17T10:23:46.990Z,66.98
2019-03-17T10:26:14.563Z,66.17
2019-03-17T10:28:42.467Z,62.92
2019-03-17T10:31:10.448Z,66.47
2019-03-17T10:33:38.337Z,66.96
2019-03-17T10:36:06.006Z,66.49
2019-03-17T10:38:33.833Z,66.89
2019-03-17T10:41:01.955Z,67.90
2019-03-17T10:43:29.372Z,67.50
2019-03-17T10:45:56.771Z,67.33
2019-03-17T10:48:24.260Z,67.42
2019-03-17T10:50:52.031Z,67.09
2019-03-17T10:53:19.332Z,67.64
2019-03-17T10:55:46.853Z,68.44
2019-03-17T10:58:14.155Z,68.88
2019-03-17T11:00:41.474Z,69.08
2019-03-17T11:03:09.206Z,67.81
2019-03-17T11:05:37.248Z,67.95
2019-03-17T11:08:04.975Z,68.60
2019-03-17T11:10:32.411Z,69.92
2019-03-17T11:12:59.826Z,70.93
2019-03-17T11:15:27.649Z,69.05
2019-03-17T11:17:55.525Z,69.55
2019-03-17T11:20:22.993Z,70.24
2019-03-17T11:22:51.115Z,70.14
2019-03-17T11:25:19.045Z,72.46
2019-03-17T11:27:46.652Z,71.71
2019-03-17T11:30:14.377Z,74.52
2019-03-17T11:32:41.865Z,70.66
2019-03-17T11:35:09.431Z,72.99
2019-03-17T11:37:36.821Z,71.20
2019-03-17T11:40:05.654Z,71.15
2019-03-17T11:42:34.003Z,72.79
2019-03-17T11:45:02.053Z,72.74
2019-03-17T11:47:29.654Z,75.06
2019-03-17T11:49:57.085Z,75.17
2019-03-17T11:52:25.527Z,74.18
2019-03-17T11:54:52.948Z,73.74
2019-03-17T11:57:20.813Z,73.57
2019-03-17T11:59:48.206Z,74.07
2019-03-17T12:02:26.129Z,74.64
2019-03-17T12:04:45.921Z,74.64
2019-03-17T12:07:14.073Z,73.34
2019-03-17T12:09:49.876Z,73.51
2019-03-17T12:12:11.790Z,73.94
2019-03-17T12:14:39.206Z,72.78
2019-03-17T12:17:07.735Z,73.48
2019-03-17T12:19:35.413Z,72.38
2019-03-17T12:22:09.103Z,71.66
2019-03-17T12:24:32.639Z,72.10
2019-03-17T12:27:00.820Z,69.59
2019-03-17T12:29:28.392Z,74.08
2019-03-17T12:31:55.837Z,72.78
2019-03-17T12:34:28.024Z,72.69
2019-03-17T12:36:53.022Z,74.03
2019-03-17T12:39:20.710Z,72.92
2019-03-17T12:41:47.871Z,74.16
2019-03-17T12:44:15.430Z,73.31
2019-03-17T12:46:42.607Z,73.32
2019-03-17T12:49:10.164Z,71.64
2019-03-17T12:51:38.024Z,71.18
2019-03-17T12:54:06.124Z,72.93
2019-03-17T12:56:34.381Z,73.04
2019-03-17T12:59:02.281Z,73.59
2019-03-17T13:01:30.366Z,72.29
2019-03-17T13:03:59.046Z,73.30
2019-03-17T13:06:27.002Z,73.06
2019-03-17T13:08:54.281Z,72.97
2019-03-17T13:11:21.680Z,70.57
2019-03-17T13:13:49.104Z,71.87
2019-03-17T13:16:16.985Z,71.12
2019-03-17T13:18:44.415Z,72.15
2019-03-17T13:21:11.568Z,72.16
2019-03-17T13:23:40.537Z,72.09
2019-03-17T13:26:10.346Z,73.25
2019-03-17T13:28:38.127Z,72.58
2019-03-17T13:31:06.162Z,72.76
2019-03-17T13:33:33.456Z,73.03
2019-03-17T13:36:01.008Z,71.56
2019-03-17T13:38:28.551Z,74.36
2019-03-17T13:40:56.111Z,74.97
2019-03-17T13:43:23.769Z,74.33
2019-03-17T13:45:51.444Z,75.90
2019-03-17T13:48:19.530Z,75.95
2019-03-17T13:50:47.322Z,76.55
2019-03-17T13:53:15.676Z,76.30
2019-03-17T13:55:43.204Z,76.17
2019-03-17T13:58:11.317Z,76.14
2019-03-17T14:00:38.869Z,76.31
2019-03-17T14:03:06.498Z,76.00
2019-03-17T14:05:34.681Z,76.62
2019-03-17T14:08:02.422Z,76.28
2019-03-17T14:10:40.275Z,76.55
2019-03-17T14:12:59.497Z,76.42
2019-03-17T14:15:27.356Z,76.47
2019-03-17T14:17:55.839Z,76.49
2019-03-17T14:20:23.509Z,75.71
2019-03-17T14:22:51.640Z,76.53
2019-03-17T14:25:22.459Z,76.66
2019-03-17T14:27:50.036Z,76.52
2019-03-17T14:30:17.859Z,75.54
2019-03-17T14:32:45.326Z,74.28
2019-03-17T14:35:12.805Z,75.42
2019-03-17T14:37:40.532Z,75.36
2019-03-17T14:40:10.139Z,74.92
2019-03-17T14:42:37.655Z,75.24
2019-03-17T14:45:05.602Z,76.29
2019-03-17T14:47:33.165Z,74.87
2019-03-17T14:50:01.147Z,74.95
2019-03-17T14:52:28.690Z,75.48
2019-03-17T14:54:56.643Z,76.03
2019-03-17T14:57:24.588Z,73.99
2019-03-17T14:59:52.630Z,74.02
2019-03-17T15:02:20.202Z,75.34
2019-03-17T15:04:47.483Z,73.84
2019-03-17T15:07:15.635Z,73.34
2019-03-17T15:09:43.510Z,74.09
2019-03-17T15:12:11.889Z,74.54
2019-03-17T15:14:39.872Z,73.16
2019-03-17T15:17:07.796Z,73.41
2019-03-17T15:19:35.202Z,73.51
2019-03-17T15:22:02.866Z,73.94
2019-03-17T15:24:31.255Z,74.19
2019-03-17T15:26:58.646Z,73.83
2019-03-17T15:29:26.773Z,73.30
2019-03-17T15:31:54.563Z,73.40
2019-03-17T15:34:22.439Z,72.49
2019-03-17T15:36:49.844Z,72.56
2019-03-17T15:39:17.667Z,72.35
2019-03-17T15:41:45.593Z,71.99
2019-03-17T15:44:13.341Z,73.67
2019-03-17T15:46:40.777Z,72.82
2019-03-17T15:49:08.706Z,72.08
2019-03-17T15:51:36.346Z,71.70
2019-03-17T15:54:04.695Z,72.31
2019-03-17T15:56:32.515Z,71.16
2019-03-17T15:59:00.342Z,71.44
2019-03-17T16:01:28.320Z,69.94
2019-03-17T16:03:56.087Z,70.24
2019-03-17T16:06:23.632Z,72.75
2019-03-17T16:08:51.173Z,70.61
2019-03-17T16:11:30.098Z,69.05
2019-03-17T16:13:48.224Z,70.32
2019-03-17T16:16:15.611Z,70.37
2019-03-17T16:18:44.137Z,69.14
2019-03-17T16:21:11.954Z,69.38
2019-03-17T16:23:39.674Z,67.61
2019-03-17T16:26:07.326Z,68.60
2019-03-17T16:28:34.828Z,69.28
2019-03-17T16:31:02.886Z,70.42
2019-03-17T16:33:30.555Z,71.43
2019-03-17T16:35:58.096Z,70.64
2019-03-17T16:38:29.405Z,71.78
2019-03-17T16:40:57.752Z,71.55
2019-03-17T16:43:25.725Z,71.60
2019-03-17T16:45:59.203Z,73.42
2019-03-17T16:48:27.586Z,72.43
2019-03-17T16:50:55.481Z,73.55
2019-03-17T16:53:23.414Z,73.35
2019-03-17T16:55:51.433Z,73.08
2019-03-17T16:58:19.307Z,72.55
2019-03-17T17:00:47.601Z,73.32
2019-03-17T17:03:15.499Z,74.04
2019-03-17T17:05:43.412Z,74.22
2019-03-17T17:08:10.998Z,74.93
2019-03-17T17:10:49.792Z,71.77
2019-03-17T17:13:12.336Z,73.19
2019-03-17T17:15:40.314Z,73.44
2019-03-17T17:18:09.862Z,74.76
2019-03-17T17:20:37.827Z,73.60
2019-03-17T17:23:05.368Z,74.01
2019-03-17T17:25:33.145Z,72.90
2019-03-17T17:28:00.741Z,72.79
2019-03-17T17:30:28.604Z,74.44
2019-03-17T17:32:56.115Z,73.06
2019-03-17T17:35:24.142Z,72.93
2019-03-17T17:37:51.541Z,72.84
2019-03-17T17:40:18.864Z,74.93
2019-03-17T17:42:46.534Z,74.49
2019-03-17T17:45:14.852Z,71.49
2019-03-17T17:47:42.275Z,74.03
2019-03-17T17:50:12.169Z,71.54
2019-03-17T17:52:39.873Z,73.79
2019-03-17T17:55:08.144Z,73.41
2019-03-17T17:57:35.551Z,72.37
2019-03-17T18:00:04.753Z,72.12
2019-03-17T18:02:32.686Z,73.42
2019-03-17T18:05:00.659Z,73.72
2019-03-17T18:07:28.602Z,74.31
2019-03-17T18:09:56.361Z,71.31
2019-03-17T18:12:24.483Z,73.15
2019-03-17T18:14:52.096Z,72.44
2019-03-17T18:17:19.819Z,72.85
2019-03-17T18:19:48.516Z,72.34
2019-03-17T18:22:17.199Z,73.91
2019-03-17T18:24:44.822Z,71.62
2019-03-17T18:27:12.527Z,71.27
2019-03-17T18:29:40.919Z,71.24
2019-03-17T18:32:09.078Z,74.17
2019-03-17T18:34:36.658Z,75.05
2019-03-17T18:37:04.719Z,75.82
2019-03-17T18:39:32.966Z,74.30
2019-03-17T18:42:00.753Z,73.89
2019-03-17T18:44:28.840Z,75.36
2019-03-17T18:46:56.484Z,74.97
2019-03-17T18:49:24.613Z,74.29
2019-03-17T18:51:52.108Z,75.63
2019-03-17T18:54:20.259Z,72.43
2019-03-17T18:56:47.882Z,72.49
2019-03-17T18:59:17.810Z,72.46
2019-03-17T19:01:45.741Z,74.05
2019-03-17T19:04:13.396Z,72.63
2019-03-17T19:06:41.569Z,73.10
2019-03-17T19:09:09.956Z,74.97
2019-03-17T19:11:37.649Z,72.94
2019-03-17T19:14:05.646Z,73.11
2019-03-17T19:16:33.366Z,75.08
2019-03-17T19:19:01.413Z,74.25
2019-03-17T19:21:29.005Z,74.46
2019-03-17T19:23:56.646Z,75.14
2019-03-17T19:26:24.949Z,74.55
2019-03-17T19:28:52.371Z,73.07
2019-03-17T19:31:19.776Z,75.20
2019-03-17T19:33:47.199Z,74.64
2019-03-17T19:36:15.173Z,73.26
2019-03-17T19:38:42.892Z,73.77
2019-03-17T19:41:10.632Z,72.88
2019-03-17T19:43:38.059Z,75.00
2019-03-17T19:46:05.937Z,73.75
2019-03-17T19:48:33.454Z,74.90
2019-03-17T19:51:01.281Z,73.23
2019-03-17T19:53:29.174Z,76.24
2019-03-17T19:55:56.664Z,75.94
2019-03-17T19:58:24.732Z,75.21
2019-03-17T20:00:53.178Z,76.19
2019-03-17T20:03:20.476Z,76.27
2019-03-17T20:05:48.520Z,75.11
2019-03-17T20:08:16.555Z,74.84
2019-03-17T20:10:44.097Z,75.30
2019-03-17T20:13:12.262Z,75.52
2019-03-17T20:15:39.909Z,73.97
2019-03-17T20:18:08.223Z,73.90
2019-03-17T20:20:36.006Z,76.28
2019-03-17T20:23:03.946Z,76.93
2019-03-17T20:25:33.349Z,77.07
2019-03-17T20:28:03.654Z,77.79
2019-03-17T20:30:31.446Z,75.62
2019-03-17T20:32:59.405Z,77.48
2019-03-17T20:35:26.833Z,77.88
2019-03-17T20:37:54.266Z,78.08
2019-03-17T20:40:21.432Z,77.54
2019-03-17T20:42:48.979Z,77.91
2019-03-17T20:45:20.059Z,78.39
2019-03-17T20:47:46.655Z,77.43
2019-03-17T20:50:14.760Z,78.00
2019-03-17T20:52:42.380Z,78.00
2019-03-17T20:55:12.968Z,78.42
2019-03-17T20:57:40.814Z,78.99
2019-03-17T21:00:11.422Z,76.88
2019-03-17T21:02:39.080Z,75.72
2019-03-17T21:05:07.147Z,74.90
2019-03-17T21:07:36.620Z,76.31
2019-03-17T21:10:09.557Z,77.55
2019-03-17T21:12:37.336Z,75.73
2019-03-17T21:15:06.594Z,76.54
2019-03-17T21:17:34.096Z,76.98
2019-03-17T21:20:01.994Z,77.46
2019-03-17T21:22:30.558Z,77.06
2019-03-17T21:24:58.700Z,76.90
2019-03-17T21:27:29.641Z,77.30
2019-03-17T21:29:57.339Z,78.16
2019-03-17T21:32:26.093Z,76.89
2019-03-17T21:34:54.393Z,78.21
2019-03-17T21:37:22.205Z,76.62
2019-03-17T21:39:50.015Z,78.60
2019-03-17T21:42:19.023Z,79.32
2019-03-17T21:44:59.760Z,77.80
2019-03-17T21:47:27.958Z,76.76
2019-03-17T21:49:57.233Z,75.91
2019-03-17T21:52:24.514Z,77.04
2019-03-17T21:54:52.102Z,78.64
2019-03-17T21:57:20.676Z,78.24
2019-03-17T21:59:48.307Z,77.75
2019-03-17T22:02:16.521Z,78.88
2019-03-17T22:04:44.008Z,78.31
2019-03-17T22:07:12.489Z,79.19
2019-03-17T22:09:39.905Z,79.23
2019-03-17T22:12:07.358Z,78.63
2019-03-17T22:14:35.533Z,78.04
2019-03-17T22:17:03.537Z,79.04
2019-03-17T22:19:31.367Z,79.34
2019-03-17T22:22:01.735Z,78.96
2019-03-17T22:24:30.173Z,78.81
2019-03-17T22:26:57.966Z,77.96
2019-03-17T22:29:25.358Z,78.16
2019-03-17T22:31:52.864Z,78.67
2019-03-17T22:34:20.418Z,79.01
2019-03-17T22:36:48.245Z,78.54
2019-03-17T22:39:15.981Z,79.65
2019-03-17T22:41:43.465Z,79.23
2019-03-17T22:44:23.581Z,79.27
2019-03-17T22:46:40.884Z,79.55
2019-03-17T22:49:08.172Z,79.85
2019-03-17T22:51:35.736Z,79.71
2019-03-17T22:54:03.571Z,79.98
2019-03-17T22:56:30.886Z,79.88
2019-03-17T22:58:58.677Z,79.42
2019-03-17T23:01:26.581Z,79.66
2019-03-17T23:03:54.258Z,79.55
2019-03-17T23:06:22.231Z,79.51
2019-03-17T23:08:50.257Z,79.45
2019-03-17T23:11:18.285Z,79.54
2019-03-17T23:13:45.976Z,79.92
2019-03-17T23:16:14.389Z,79.68
2019-03-17T23:18:42.111Z,79.95
2019-03-17T23:21:10.437Z,80.21
2019-03-17T23:23:39.463Z,79.89
2019-03-17T23:26:07.046Z,80.11
2019-03-17T23:28:34.291Z,80.69
2019-03-17T23:31:01.843Z,80.01
2019-03-17T23:33:29.444Z,80.60
2019-03-17T23:35:57.194Z,81.24
2019-03-17T23:38:25.403Z,81.39
2019-03-17T23:40:53.566Z,81.72
2019-03-17T23:43:20.814Z,82.44
2019-03-17T23:45:48.877Z,82.71
2019-03-17T23:48:16.139Z,82.06
2019-03-17T23:50:43.393Z,81.65
2019-03-17T23:53:11.450Z,81.06
2019-03-17T23:55:39.123Z,81.04
2019-03-17T23:58:07.497Z,80.39
